Terminal Aerodrome Forecast
Issued by NWS

Home | Current Version | Previous Version | Text Only | Print | Product List | Glossary On
Versions: 1 2 3 4 5 6 7 8 9 10 11 12 13 14 15 16 17 18 19 20 21
013
FTUS46 KOTX 042320
TAFCOE
TAF
KCOE 042320Z 0500/0524 27004KT P6SM VCSH SCT070 BKN120
     FM050130 21006KT P6SM -SHRA BKN070 BKN100
     FM050300 04008KT P6SM SCT070 BKN100
     FM050800 04004KT P6SM TSRA BKN080CB BKN120
     FM051100 09006KT P6SM VCSH BKN080 BKN120 OVC200
      AMD LTD TO CLD VIS AND WIND=

USA.gov is the U.S. government's official web portal to all federal, state and local government web resources and services.